createdAt,value
2019-04-26T00:01:38.269Z,39.07
2019-04-26T00:04:07.720Z,39.04
2019-04-26T00:06:36.710Z,39.12
2019-04-26T00:09:18.996Z,39.03
2019-04-26T00:11:51.803Z,38.85
2019-04-26T00:14:36.489Z,38.73
2019-04-26T00:17:15.501Z,38.60
2019-04-26T00:19:44.143Z,38.50
2019-04-26T00:22:13.010Z,38.38
2019-04-26T00:24:41.611Z,38.39
2019-04-26T00:27:11.258Z,38.33
2019-04-26T00:29:39.679Z,38.26
2019-04-26T00:32:08.224Z,38.18
2019-04-26T00:34:36.429Z,38.22
2019-04-26T00:37:04.660Z,38.26
2019-04-26T00:39:32.887Z,38.53
2019-04-26T00:42:01.109Z,38.93
2019-04-26T00:44:29.320Z,39.61
2019-04-26T00:46:57.554Z,40.03
2019-04-26T00:49:26.062Z,40.25
2019-04-26T00:51:54.262Z,40.48
2019-04-26T00:54:22.471Z,40.61
2019-04-26T00:56:50.685Z,40.92
2019-04-26T00:59:18.903Z,41.14
2019-04-26T01:01:48.792Z,41.27
2019-04-26T01:04:17.147Z,41.31
2019-04-26T01:06:47.271Z,41.43
2019-04-26T01:09:16.074Z,41.50
2019-04-26T01:11:44.710Z,41.56
2019-04-26T01:14:13.411Z,41.57
2019-04-26T01:16:41.627Z,41.53
2019-04-26T01:19:09.922Z,41.59
2019-04-26T01:21:41.037Z,41.61
2019-04-26T01:24:09.234Z,41.52
2019-04-26T01:26:37.458Z,41.52
2019-04-26T01:29:12.297Z,41.47
2019-04-26T01:31:49.310Z,41.34
2019-04-26T01:34:17.778Z,41.26
2019-04-26T01:36:47.221Z,41.39
2019-04-26T01:39:19.728Z,41.56
2019-04-26T01:42:08.348Z,41.73
2019-04-26T01:44:44.033Z,41.74
2019-04-26T01:47:12.930Z,41.58
2019-04-26T01:49:41.144Z,41.39
2019-04-26T01:52:10.398Z,41.21
2019-04-26T01:54:41.824Z,41.13
2019-04-26T01:57:09.986Z,41.10
2019-04-26T01:59:40.119Z,41.11
2019-04-26T02:02:23.700Z,41.17
2019-04-26T02:04:53.912Z,41.16
2019-04-26T02:07:41.548Z,41.21
2019-04-26T02:10:18.161Z,41.24
2019-04-26T02:12:47.008Z,41.29
2019-04-26T02:15:15.791Z,41.36
2019-04-26T02:17:44.578Z,41.33
2019-04-26T02:20:13.520Z,41.27
2019-04-26T02:22:44.169Z,41.38
2019-04-26T02:25:12.441Z,41.47
2019-04-26T02:27:40.617Z,41.56
2019-04-26T02:30:09.300Z,41.63
2019-04-26T02:32:37.717Z,41.62
2019-04-26T02:35:06.667Z,41.68
2019-04-26T02:37:36.880Z,41.61
2019-04-26T02:40:07.564Z,41.50
2019-04-26T02:42:39.552Z,41.50
2019-04-26T02:45:21.696Z,41.53
2019-04-26T02:47:51.551Z,41.55
2019-04-26T02:50:21.402Z,41.68
2019-04-26T02:52:52.875Z,41.81
2019-04-26T02:55:48.758Z,41.88
2019-04-26T02:58:17.004Z,41.93
2019-04-26T03:00:45.256Z,41.91
2019-04-26T03:03:13.461Z,41.92
2019-04-26T03:05:42.053Z,41.97
2019-04-26T03:08:12.518Z,42.01
2019-04-26T03:10:43.439Z,42.04
2019-04-26T03:13:15.026Z,42.07
2019-04-26T03:15:50.310Z,42.08
2019-04-26T03:18:36.888Z,42.16
2019-04-26T03:21:17.456Z,42.30
2019-04-26T03:24:13.245Z,42.40
2019-04-26T03:27:16.575Z,42.46
2019-04-26T03:30:19.382Z,42.47
2019-04-26T03:32:53.772Z,42.46
2019-04-26T03:35:52.449Z,42.29
2019-04-26T03:38:40.135Z,42.22
2019-04-26T03:41:38.335Z,42.23
2019-04-26T03:44:21.636Z,42.26
2019-04-26T03:46:54.933Z,42.32
2019-04-26T03:49:45.989Z,42.42
2019-04-26T03:52:26.646Z,42.50
2019-04-26T03:54:58.055Z,42.71
2019-04-26T03:57:41.821Z,42.92
2019-04-26T04:00:27.614Z,42.99
2019-04-26T04:03:15.623Z,43.11
2019-04-26T04:05:48.103Z,43.20
2019-04-26T04:08:19.582Z,43.33
2019-04-26T04:10:51.207Z,43.45
2019-04-26T04:13:42.964Z,43.53
2019-04-26T04:16:16.306Z,43.70
2019-04-26T04:18:53.890Z,45.95
2019-04-26T04:21:42.674Z,47.32
2019-04-26T04:24:14.281Z,47.64
2019-04-26T04:27:04.299Z,47.98
2019-04-26T04:29:55.961Z,48.92
2019-04-26T04:32:32.963Z,51.44
2019-04-26T04:35:06.762Z,52.91
2019-04-26T04:38:01.630Z,53.37
2019-04-26T04:40:18.614Z,53.79
2019-04-26T04:43:12.848Z,53.99
2019-04-26T04:45:45.708Z,54.14
2019-04-26T04:48:22.823Z,53.97
2019-04-26T04:51:17.242Z,53.78
2019-04-26T04:54:09.643Z,53.98
2019-04-26T04:57:03.270Z,54.30
2019-04-26T04:59:46.385Z,53.42
2019-04-26T05:02:43.927Z,53.82
2019-04-26T05:05:43.478Z,54.52
2019-04-26T05:08:21.564Z,55.27
2019-04-26T05:11:08.309Z,55.49
2019-04-26T05:13:46.372Z,55.91
2019-04-26T05:16:38.124Z,55.92
2019-04-26T05:19:27.881Z,56.04
2019-04-26T05:22:25.359Z,56.17
2019-04-26T05:25:40.302Z,56.30
2019-04-26T05:28:15.456Z,56.39
2019-04-26T05:31:12.727Z,56.43
2019-04-26T05:33:47.749Z,56.32
2019-04-26T05:36:32.254Z,56.15
2019-04-26T05:39:08.556Z,56.09
2019-04-26T05:41:57.869Z,56.00
2019-04-26T05:45:04.461Z,55.69
2019-04-26T05:48:02.986Z,55.35
2019-04-26T05:50:58.933Z,55.03
2019-04-26T05:54:01.475Z,54.87
2019-04-26T05:56:56.266Z,54.70
2019-04-26T05:59:31.349Z,53.40
2019-04-26T06:02:15.648Z,51.09
2019-04-26T06:05:06.633Z,50.10
2019-04-26T06:07:48.573Z,48.54
2019-04-26T06:10:37.836Z,48.34
2019-04-26T06:13:19.600Z,49.28
2019-04-26T06:16:16.344Z,50.65
2019-04-26T06:19:16.738Z,51.72
2019-04-26T06:22:14.195Z,52.51
2019-04-26T06:25:09.008Z,52.28
2019-04-26T06:27:58.812Z,51.36
2019-04-26T06:30:45.706Z,50.85
2019-04-26T06:33:32.407Z,50.44
2019-04-26T06:36:04.428Z,50.05
2019-04-26T06:38:44.309Z,49.98
2019-04-26T06:41:25.705Z,50.41
2019-04-26T06:44:07.104Z,51.13
2019-04-26T06:46:52.563Z,51.25
2019-04-26T06:49:33.785Z,50.64
2019-04-26T06:52:05.169Z,50.07
2019-04-26T06:54:45.567Z,49.96
2019-04-26T06:57:36.881Z,49.68
2019-04-26T07:00:19.807Z,49.20
2019-04-26T07:03:09.669Z,48.84
2019-04-26T07:05:46.137Z,49.34
2019-04-26T07:08:17.720Z,50.15
2019-04-26T07:11:01.017Z,50.27
2019-04-26T07:13:49.012Z,50.37
2019-04-26T07:16:42.989Z,50.50
2019-04-26T07:19:20.073Z,50.50
2019-04-26T07:22:21.040Z,50.04
2019-04-26T07:25:19.991Z,49.23
2019-04-26T07:28:06.831Z,47.98
2019-04-26T07:30:39.299Z,47.01
2019-04-26T07:33:18.575Z,46.54
2019-04-26T07:36:05.576Z,46.22
2019-04-26T07:39:13.752Z,45.84
2019-04-26T07:41:57.600Z,45.95
2019-04-26T07:44:30.728Z,46.55
2019-04-26T07:47:08.524Z,47.06
2019-04-26T07:50:04.048Z,47.08
2019-04-26T07:52:36.231Z,46.91
2019-04-26T07:55:25.967Z,46.90
2019-04-26T07:58:20.885Z,46.53
2019-04-26T08:00:59.656Z,45.89
2019-04-26T08:03:35.542Z,45.60
2019-04-26T08:06:21.426Z,45.56
2019-04-26T08:09:03.186Z,45.36
2019-04-26T08:11:38.119Z,45.22
2019-04-26T08:14:11.171Z,45.14
2019-04-26T08:17:14.859Z,45.07
2019-04-26T08:20:02.326Z,44.95
2019-04-26T08:22:33.733Z,44.38
2019-04-26T08:25:02.016Z,44.08
2019-04-26T08:27:30.227Z,44.00
2019-04-26T08:29:59.452Z,44.02
2019-04-26T08:32:33.502Z,44.16
2019-04-26T08:35:08.138Z,44.08
2019-04-26T08:37:51.682Z,43.97
2019-04-26T08:40:28.268Z,44.05
2019-04-26T08:43:07.270Z,44.19
2019-04-26T08:45:44.103Z,44.71
2019-04-26T08:48:32.327Z,45.11
2019-04-26T08:51:04.926Z,45.20
2019-04-26T08:53:33.153Z,45.19
2019-04-26T08:56:01.656Z,45.27
2019-04-26T08:58:29.943Z,45.49
2019-04-26T09:01:15.962Z,45.64
2019-04-26T09:03:46.726Z,45.42
2019-04-26T09:06:16.590Z,44.94
2019-04-26T09:08:45.124Z,44.28
2019-04-26T09:11:25.333Z,44.09
2019-04-26T09:13:44.867Z,44.41
2019-04-26T09:16:15.118Z,44.20
2019-04-26T09:18:48.088Z,43.78
2019-04-26T09:21:16.999Z,42.91
2019-04-26T09:24:01.629Z,42.83
2019-04-26T09:26:42.352Z,42.78
2019-04-26T09:29:18.038Z,42.56
2019-04-26T09:31:57.065Z,42.72
2019-04-26T09:34:29.851Z,42.69
2019-04-26T09:36:58.070Z,41.89
2019-04-26T09:39:26.742Z,42.14
2019-04-26T09:41:56.593Z,42.19
2019-04-26T09:44:27.410Z,42.08
2019-04-26T09:46:57.283Z,42.17
2019-04-26T09:49:30.160Z,42.07
2019-04-26T09:51:58.528Z,41.58
2019-04-26T09:54:27.115Z,41.16
2019-04-26T09:56:55.330Z,41.52
2019-04-26T09:59:23.550Z,42.08
2019-04-26T10:01:55.457Z,42.08
2019-04-26T10:04:21.681Z,41.78
2019-04-26T10:06:49.970Z,41.37
2019-04-26T10:09:21.326Z,41.61
2019-04-26T10:11:53.178Z,41.96
2019-04-26T10:14:32.244Z,41.73
2019-04-26T10:17:02.163Z,41.28
2019-04-26T10:19:47.327Z,41.13
2019-04-26T10:22:15.595Z,41.46
2019-04-26T10:24:43.859Z,41.81
2019-04-26T10:27:12.138Z,42.26
2019-04-26T10:29:40.427Z,42.83
2019-04-26T10:32:08.651Z,43.50
2019-04-26T10:34:36.835Z,43.71
2019-04-26T10:37:06.118Z,44.17
2019-04-26T10:39:36.905Z,44.73
2019-04-26T10:42:04.939Z,44.96
2019-04-26T10:44:35.820Z,45.18
2019-04-26T10:47:04.481Z,45.32
2019-04-26T10:49:46.396Z,45.69
2019-04-26T10:52:17.102Z,45.87
2019-04-26T10:54:46.904Z,45.52
2019-04-26T10:57:33.178Z,45.40
2019-04-26T11:00:03.050Z,44.94
2019-04-26T11:02:31.268Z,44.70
2019-04-26T11:04:59.485Z,44.37
2019-04-26T11:07:28.026Z,44.53
2019-04-26T11:09:56.295Z,45.10
2019-04-26T11:12:24.514Z,45.88
2019-04-26T11:14:53.394Z,46.43
2019-04-26T11:17:22.670Z,46.65
2019-04-26T11:19:51.289Z,46.88
2019-04-26T11:22:28.926Z,47.24
2019-04-26T11:24:53.427Z,47.47
2019-04-26T11:27:19.995Z,47.75
2019-04-26T11:29:53.822Z,47.88
2019-04-26T11:32:18.315Z,47.54
2019-04-26T11:34:46.852Z,47.26
2019-04-26T11:37:17.780Z,46.94
2019-04-26T11:39:45.013Z,46.49
2019-04-26T11:42:13.326Z,46.18
2019-04-26T11:44:44.449Z,45.77
2019-04-26T11:47:13.331Z,45.38
2019-04-26T11:49:42.960Z,45.40
2019-04-26T11:52:11.377Z,45.60
2019-04-26T11:54:39.592Z,45.86
2019-04-26T11:57:08.277Z,45.99
2019-04-26T11:59:38.434Z,46.02
2019-04-26T12:02:06.654Z,46.22
2019-04-26T12:04:42.451Z,46.23
2019-04-26T12:07:27.838Z,45.94
2019-04-26T12:10:05.838Z,45.55
2019-04-26T12:12:33.893Z,44.87
2019-04-26T12:15:03.960Z,45.12
2019-04-26T12:17:35.199Z,45.15
2019-04-26T12:20:02.416Z,44.87
2019-04-26T12:22:30.619Z,44.74
2019-04-26T12:24:58.834Z,44.88
2019-04-26T12:27:30.719Z,45.22
2019-04-26T12:29:57.303Z,45.53
2019-04-26T12:32:25.852Z,45.30
2019-04-26T12:34:54.048Z,45.50
2019-04-26T12:37:22.271Z,45.65
2019-04-26T12:39:50.777Z,45.85
2019-04-26T12:42:19.860Z,45.83
2019-04-26T12:44:58.710Z,45.50
2019-04-26T12:47:45.028Z,45.13
2019-04-26T12:50:13.713Z,45.23
2019-04-26T12:52:41.990Z,45.05
2019-04-26T12:55:13.740Z,45.06
2019-04-26T12:57:40.871Z,44.89
2019-04-26T13:00:12.029Z,44.63
2019-04-26T13:02:40.239Z,44.25
2019-04-26T13:05:08.933Z,44.29
2019-04-26T13:07:39.017Z,44.30
2019-04-26T13:10:15.054Z,44.21
2019-04-26T13:12:51.207Z,43.87
2019-04-26T13:16:07.599Z,43.28
2019-04-26T13:18:35.810Z,44.17
2019-04-26T13:21:04.491Z,45.30
2019-04-26T13:23:33.061Z,46.28
2019-04-26T13:26:01.701Z,47.36
2019-04-26T13:28:30.447Z,48.40
2019-04-26T13:31:02.229Z,49.43
2019-04-26T13:33:29.855Z,49.72
2019-04-26T13:36:05.142Z,49.67
2019-04-26T13:38:27.999Z,49.93
2019-04-26T13:40:59.693Z,49.98
2019-04-26T13:43:28.550Z,49.95
2019-04-26T13:45:59.720Z,49.95
2019-04-26T13:48:29.608Z,50.32
2019-04-26T13:51:01.384Z,50.50
2019-04-26T13:53:29.437Z,50.64
2019-04-26T13:55:58.397Z,50.46
2019-04-26T13:58:27.979Z,50.44
2019-04-26T14:00:56.455Z,50.53
2019-04-26T14:03:27.278Z,50.52
2019-04-26T14:05:54.946Z,50.31
2019-04-26T14:08:23.440Z,49.97
2019-04-26T14:10:51.649Z,49.80
2019-04-26T14:13:20.697Z,49.61
2019-04-26T14:15:52.036Z,49.43
2019-04-26T14:18:19.752Z,49.15
2019-04-26T14:20:48.293Z,49.00
2019-04-26T14:23:27.459Z,48.86
2019-04-26T14:26:06.983Z,48.80
2019-04-26T14:28:35.276Z,48.85
2019-04-26T14:31:03.503Z,49.20
2019-04-26T14:33:32.590Z,49.67
2019-04-26T14:36:01.111Z,50.04
2019-04-26T14:38:39.423Z,50.53
2019-04-26T14:41:04.195Z,51.10
2019-04-26T14:43:39.978Z,51.47
2019-04-26T14:45:59.305Z,51.75
2019-04-26T14:48:35.957Z,51.89
2019-04-26T14:51:07.438Z,51.85
2019-04-26T14:53:27.482Z,51.90
2019-04-26T14:55:55.710Z,51.92
2019-04-26T14:58:29.965Z,51.81
2019-04-26T15:01:03.167Z,51.75
2019-04-26T15:03:38.961Z,51.74
2019-04-26T15:06:23.312Z,51.75
2019-04-26T15:08:52.977Z,51.69
2019-04-26T15:11:22.952Z,51.45
2019-04-26T15:13:51.320Z,51.41
2019-04-26T15:16:22.150Z,51.10
2019-04-26T15:18:49.499Z,50.77
2019-04-26T15:21:17.691Z,50.66
2019-04-26T15:23:45.985Z,50.82
2019-04-26T15:26:14.209Z,51.24
2019-04-26T15:28:43.769Z,51.62
2019-04-26T15:31:13.107Z,51.86
2019-04-26T15:33:44.199Z,52.14
2019-04-26T15:36:14.485Z,52.19
2019-04-26T15:38:44.910Z,52.32
2019-04-26T15:41:33.081Z,52.23
2019-04-26T15:44:03.157Z,51.98
2019-04-26T15:46:48.655Z,51.62
2019-04-26T15:49:19.349Z,51.31
2019-04-26T15:51:47.941Z,51.16
2019-04-26T15:54:17.890Z,51.18
2019-04-26T15:56:49.295Z,51.24
2019-04-26T15:59:18.420Z,51.17
2019-04-26T16:01:49.174Z,51.19
2019-04-26T16:04:17.262Z,51.12
2019-04-26T16:06:45.854Z,50.88
2019-04-26T16:09:19.835Z,50.82
2019-04-26T16:11:49.497Z,50.57
2019-04-26T16:14:14.470Z,49.15
2019-04-26T16:16:43.038Z,48.66
2019-04-26T16:19:13.042Z,49.07
2019-04-26T16:21:42.548Z,49.07
2019-04-26T16:24:10.918Z,48.87
2019-04-26T16:26:44.596Z,48.65
2019-04-26T16:29:14.209Z,48.71
2019-04-26T16:31:47.276Z,48.57
2019-04-26T16:34:28.789Z,48.57
2019-04-26T16:36:57.219Z,48.79
2019-04-26T16:39:32.357Z,48.88
2019-04-26T16:41:59.205Z,48.88
2019-04-26T16:44:29.931Z,48.87
2019-04-26T16:47:01.453Z,48.83
2019-04-26T16:49:25.921Z,48.75
2019-04-26T16:52:01.936Z,48.40
2019-04-26T16:54:26.776Z,47.75
2019-04-26T16:56:58.855Z,48.08
2019-04-26T16:59:26.748Z,48.32
2019-04-26T17:01:54.237Z,48.31
2019-04-26T17:04:28.410Z,48.60
2019-04-26T17:06:53.045Z,49.01
2019-04-26T17:09:23.513Z,49.39
2019-04-26T17:11:52.353Z,49.88
2019-04-26T17:14:22.512Z,50.21
2019-04-26T17:16:53.255Z,50.24
2019-04-26T17:19:22.802Z,50.30
2019-04-26T17:22:03.724Z,50.48
2019-04-26T17:24:38.106Z,50.85
2019-04-26T17:27:09.765Z,51.39
2019-04-26T17:29:37.597Z,51.86
2019-04-26T17:32:09.241Z,52.50
2019-04-26T17:34:36.514Z,53.41
2019-04-26T17:37:09.914Z,54.16
2019-04-26T17:39:35.012Z,55.02
2019-04-26T17:42:03.598Z,55.77
2019-04-26T17:44:34.068Z,56.89
2019-04-26T17:47:02.361Z,58.07
2019-04-26T17:49:34.318Z,58.67
2019-04-26T17:52:01.937Z,59.41
2019-04-26T17:54:44.151Z,60.18
2019-04-26T17:57:04.268Z,60.88
2019-04-26T17:59:34.021Z,61.48
2019-04-26T18:02:01.330Z,61.81
2019-04-26T18:04:36.536Z,62.22
2019-04-26T18:07:03.843Z,62.43
2019-04-26T18:09:41.434Z,62.96
2019-04-26T18:12:03.376Z,63.47
2019-04-26T18:14:32.006Z,64.22
2019-04-26T18:17:04.374Z,64.99
2019-04-26T18:19:42.440Z,65.42
2019-04-26T18:22:24.554Z,65.98
2019-04-26T18:24:53.188Z,66.78
2019-04-26T18:27:21.833Z,67.87
2019-04-26T18:29:50.051Z,67.92
2019-04-26T18:32:18.364Z,68.05
2019-04-26T18:34:46.602Z,68.86
2019-04-26T18:37:14.832Z,68.92
2019-04-26T18:39:43.172Z,69.12
2019-04-26T18:42:11.629Z,69.29
2019-04-26T18:44:47.378Z,69.47
2019-04-26T18:47:22.315Z,69.67
2019-04-26T18:49:52.105Z,69.64
2019-04-26T18:52:23.308Z,69.69
2019-04-26T18:54:52.525Z,69.69
2019-04-26T18:57:21.060Z,69.83
2019-04-26T18:59:51.218Z,69.78
2019-04-26T19:02:21.344Z,69.62
2019-04-26T19:04:49.766Z,69.49
2019-04-26T19:07:31.028Z,69.43
2019-04-26T19:09:58.866Z,69.35
2019-04-26T19:12:18.436Z,69.49
2019-04-26T19:15:07.523Z,69.59
2019-04-26T19:17:43.548Z,69.77
2019-04-26T19:20:30.019Z,70.01
2019-04-26T19:22:59.601Z,70.13
2019-04-26T19:25:29.853Z,70.39
2019-04-26T19:27:58.914Z,70.93
2019-04-26T19:30:28.158Z,70.83
2019-04-26T19:32:56.684Z,71.06
2019-04-26T19:35:24.908Z,71.04
2019-04-26T19:37:53.133Z,71.44
2019-04-26T19:40:22.867Z,71.41
2019-04-26T19:42:57.031Z,71.68
2019-04-26T19:45:22.947Z,71.87
2019-04-26T19:47:55.880Z,72.21
2019-04-26T19:50:28.448Z,72.74
2019-04-26T19:53:16.620Z,73.05
2019-04-26T19:56:01.637Z,73.36
2019-04-26T19:58:32.081Z,73.37
2019-04-26T20:01:02.272Z,73.46
2019-04-26T20:03:32.017Z,73.96
2019-04-26T20:06:01.137Z,74.29
2019-04-26T20:08:29.831Z,74.63
2019-04-26T20:10:58.374Z,75.41
2019-04-26T20:13:26.599Z,75.41
2019-04-26T20:15:57.453Z,75.43
2019-04-26T20:18:25.234Z,75.47
2019-04-26T20:20:53.468Z,75.81
2019-04-26T20:23:22.855Z,75.73
2019-04-26T20:25:52.977Z,75.51
2019-04-26T20:28:22.765Z,75.42
2019-04-26T20:30:53.091Z,75.44
2019-04-26T20:33:22.432Z,75.44
2019-04-26T20:35:51.511Z,75.33
2019-04-26T20:38:20.069Z,75.40
2019-04-26T20:40:49.025Z,75.44
2019-04-26T20:43:24.377Z,75.50
2019-04-26T20:46:08.082Z,75.58
2019-04-26T20:48:17.481Z,75.59
2019-04-26T20:50:45.696Z,75.56
2019-04-26T20:53:14.942Z,75.87
2019-04-26T20:55:43.454Z,76.10
2019-04-26T20:58:11.925Z,76.30
2019-04-26T21:00:53.550Z,76.31
2019-04-26T21:03:23.018Z,76.39
2019-04-26T21:05:46.195Z,76.43
2019-04-26T21:08:12.358Z,76.62
2019-04-26T21:10:41.808Z,76.78
2019-04-26T21:13:12.085Z,77.00
2019-04-26T21:15:53.424Z,77.06
2019-04-26T21:18:12.331Z,77.02
2019-04-26T21:20:42.375Z,77.14
2019-04-26T21:23:12.912Z,77.09
2019-04-26T21:25:44.995Z,77.08
2019-04-26T21:28:23.738Z,77.14
2019-04-26T21:31:09.878Z,77.04
2019-04-26T21:33:39.754Z,77.03
2019-04-26T21:36:09.916Z,77.01
2019-04-26T21:38:45.766Z,77.05
2019-04-26T21:41:27.710Z,77.10
2019-04-26T21:43:55.920Z,77.14
2019-04-26T21:46:24.159Z,77.20
2019-04-26T21:48:53.447Z,77.15
2019-04-26T21:51:22.999Z,77.19
2019-04-26T21:53:52.970Z,77.25
2019-04-26T21:56:21.369Z,77.36
2019-04-26T21:58:49.891Z,77.38
2019-04-26T22:01:20.443Z,77.39
2019-04-26T22:03:54.297Z,77.43
2019-04-26T22:06:19.800Z,77.51
2019-04-26T22:09:04.752Z,77.52
2019-04-26T22:11:32.212Z,77.55
2019-04-26T22:14:03.062Z,77.61
2019-04-26T22:16:42.470Z,77.60
2019-04-26T22:19:32.527Z,77.72
2019-04-26T22:22:08.687Z,77.81
2019-04-26T22:24:38.541Z,77.89
2019-04-26T22:27:06.752Z,77.86
2019-04-26T22:29:35.261Z,77.82
2019-04-26T22:32:03.773Z,77.77
2019-04-26T22:34:32.326Z,77.68
2019-04-26T22:37:01.349Z,77.67
2019-04-26T22:39:32.581Z,77.63
2019-04-26T22:42:02.724Z,77.61
2019-04-26T22:44:41.411Z,77.54
2019-04-26T22:47:20.434Z,77.54
2019-04-26T22:49:48.879Z,77.57
2019-04-26T22:52:17.121Z,77.62
2019-04-26T22:54:46.652Z,77.56
2019-04-26T22:57:16.478Z,77.56
2019-04-26T22:59:49.955Z,77.53
2019-04-26T23:02:18.285Z,77.62
2019-04-26T23:04:45.582Z,77.67
2019-04-26T23:07:18.227Z,77.68
2019-04-26T23:09:45.750Z,77.74
2019-04-26T23:12:27.896Z,77.78
2019-04-26T23:15:13.354Z,77.87
2019-04-26T23:17:51.819Z,77.87
2019-04-26T23:20:25.098Z,77.96
2019-04-26T23:22:54.639Z,77.96
2019-04-26T23:25:23.824Z,77.97
2019-04-26T23:27:56.779Z,78.00
2019-04-26T23:30:23.133Z,78.04
2019-04-26T23:32:52.185Z,78.06
2019-04-26T23:35:21.487Z,78.12
2019-04-26T23:37:49.954Z,78.19
2019-04-26T23:40:20.690Z,78.15
2019-04-26T23:42:51.571Z,77.92
2019-04-26T23:45:18.093Z,77.92
2019-04-26T23:47:46.668Z,77.81
2019-04-26T23:50:14.894Z,77.78
2019-04-26T23:52:43.685Z,77.71
2019-04-26T23:55:13.480Z,77.72
2019-04-26T23:57:43.442Z,77.69
